首页
METAR-TAF:

METAR-TAF

机场 :

滑铁卢, 艾奥瓦州, 美国

纬度: 42-33-16N, 经度: 092-24-04W, 海拔: 266米

当前天气观测

该预报发布于1小时和5分钟前的09:54 UTC
静风
温度 19°C
湿度 88%
气压 1012 hPa
能見度: 16.1公里
天空无云

METAR: KALO 260954Z AUTO 00000KT 10SM CLR 19/17 A2987 RMK AO2 SLP110 T01890167

时间: 05:59 (10:59 UTC)

预报

该预报发布于1小时和32分钟前的09:27 UTC
预报有效从26日的 09点(UTC)到 27日的 06点(UTC)
风速7节,风向南转南东
能見度: 10公里
少量云层高于3000英尺
散云层高于4500英尺
多云层高于7000英尺
从 26日的 1500点(UTC)
风速10节,风向南转南东
能見度: 10公里
多云层高于3500英尺, 积雨云.
附近有雷暴
从 26日的 1700点(UTC)
风速10节,风向南转南东,有时为18节阵风
能見度: 10公里
多云层高于7000英尺
从 26日的 2300点(UTC)
风速11节,风向南转南东,有时为19节阵风
能見度: 8.0公里
多云层高于3000英尺, 积雨云.
多云层高于8000英尺
阵雨, 附近有雷暴
从 27日的 0300点(UTC)
风速10节,风向南转南东
能見度: 10公里
多云层高于7000英尺

TAF: KALO 260927Z 2609/2706 15007KT P6SM FEW030 SCT045 BKN070 FM261500 16010KT P6SM VCTS BKN035CB FM261700 16010G18KT P6SM BKN070 FM262300 16011G19KT 5SM SHRA VCTS BKN030CB BKN080 FM270300 16010KT P6SM BKN070

超过4000个机场的气象观测和天气预报(METAR&TAF报告)。

可查询的气象台以黄色和红色小点在地图上表示。

将鼠标移到小点上方,可查看气象台名称。

然后点击查看天气观测和预报。

如需切换地图:点击带黑十字的绿色按钮放大地图;点击带横线的绿色按钮缩小地图;或者点击绿色箭头查看邻近地区的地图。


METAR-TAF: